sensor_id;sensor_type;location;lat;lon;timestamp;P1;durP1;ratioP1;P2;durP2;ratioP2
54947;SDS011;41113;41.882;12.530;2022-09-09T00:04:27;15.30;;;7.75;;
54947;SDS011;41113;41.882;12.530;2022-09-09T00:12:10;17.63;;;8.97;;
54947;SDS011;41113;41.882;12.530;2022-09-09T00:14:59;16.33;;;7.93;;
54947;SDS011;41113;41.882;12.530;2022-09-09T00:22:54;18.85;;;9.45;;
54947;SDS011;41113;41.882;12.530;2022-09-09T00:28:29;18.48;;;9.23;;
54947;SDS011;41113;41.882;12.530;2022-09-09T00:34:11;17.70;;;9.10;;
54947;SDS011;41113;41.882;12.530;2022-09-09T00:36:51;17.23;;;8.57;;
54947;SDS011;41113;41.882;12.530;2022-09-09T00:48:12;20.08;;;8.80;;
54947;SDS011;41113;41.882;12.530;2022-09-09T00:50:57;18.98;;;8.38;;
54947;SDS011;41113;41.882;12.530;2022-09-09T00:56:25;18.80;;;8.57;;
54947;SDS011;41113;41.882;12.530;2022-09-09T01:02:02;17.00;;;7.82;;
54947;SDS011;41113;41.882;12.530;2022-09-09T01:04:38;15.88;;;8.65;;
54947;SDS011;41113;41.882;12.530;2022-09-09T01:07:06;18.02;;;8.65;;
54947;SDS011;41113;41.882;12.530;2022-09-09T01:16:14;13.43;;;7.65;;
54947;SDS011;41113;41.882;12.530;2022-09-09T01:27:41;19.55;;;7.90;;
54947;SDS011;41113;41.882;12.530;2022-09-09T01:30:13;15.23;;;7.73;;
54947;SDS011;41113;41.882;12.530;2022-09-09T01:46:30;15.52;;;7.05;;
54947;SDS011;41113;41.882;12.530;2022-09-09T01:48:55;15.52;;;7.88;;
54947;SDS011;41113;41.882;12.530;2022-09-09T01:51:23;15.67;;;7.13;;
54947;SDS011;41113;41.882;12.530;2022-09-09T01:53:49;12.85;;;7.05;;
54947;SDS011;41113;41.882;12.530;2022-09-09T02:18:48;11.38;;;3.45;;
54947;SDS011;41113;41.882;12.530;2022-09-09T02:21:20;9.85;;;3.33;;
54947;SDS011;41113;41.882;12.530;2022-09-09T02:24:21;10.75;;;3.60;;
54947;SDS011;41113;41.882;12.530;2022-09-09T02:26:51;7.80;;;3.20;;
54947;SDS011;41113;41.882;12.530;2022-09-09T02:29:36;11.02;;;3.47;;
54947;SDS011;41113;41.882;12.530;2022-09-09T02:41:06;10.18;;;3.42;;
54947;SDS011;41113;41.882;12.530;2022-09-09T02:43:50;10.75;;;3.80;;
54947;SDS011;41113;41.882;12.530;2022-09-09T02:49:05;13.13;;;3.67;;
54947;SDS011;41113;41.882;12.530;2022-09-09T02:54:32;11.32;;;3.95;;
54947;SDS011;41113;41.882;12.530;2022-09-09T03:00:02;10.35;;;3.50;;
54947;SDS011;41113;41.882;12.530;2022-09-09T03:02:47;11.35;;;4.05;;
54947;SDS011;41113;41.882;12.530;2022-09-09T03:05:16;10.82;;;3.78;;
54947;SDS011;41113;41.882;12.530;2022-09-09T03:07:41;13.32;;;3.97;;
54947;SDS011;41113;41.882;12.530;2022-09-09T03:10:06;15.32;;;4.18;;
54947;SDS011;41113;41.882;12.530;2022-09-09T03:15:13;13.07;;;4.20;;
54947;SDS011;41113;41.882;12.530;2022-09-09T03:17:39;17.40;;;3.83;;
54947;SDS011;41113;41.882;12.530;2022-09-09T03:23:11;14.32;;;4.70;;
54947;SDS011;41113;41.882;12.530;2022-09-09T03:25:38;12.73;;;3.92;;
54947;SDS011;41113;41.882;12.530;2022-09-09T03:28:04;12.57;;;4.30;;
54947;SDS011;41113;41.882;12.530;2022-09-09T03:37:13;15.05;;;4.88;;
54947;SDS011;41113;41.882;12.530;2022-09-09T03:39:41;16.05;;;5.47;;
54947;SDS011;41113;41.882;12.530;2022-09-09T03:42:07;14.55;;;5.63;;
54947;SDS011;41113;41.882;12.530;2022-09-09T03:44:33;12.90;;;5.10;;
54947;SDS011;41113;41.882;12.530;2022-09-09T03:46:58;16.80;;;6.07;;
54947;SDS011;41113;41.882;12.530;2022-09-09T03:49:25;15.75;;;6.72;;
54947;SDS011;41113;41.882;12.530;2022-09-09T03:51:53;19.05;;;7.47;;
54947;SDS011;41113;41.882;12.530;2022-09-09T03:54:20;17.83;;;7.03;;
54947;SDS011;41113;41.882;12.530;2022-09-09T04:05:48;21.20;;;7.85;;
54947;SDS011;41113;41.882;12.530;2022-09-09T04:08:32;17.13;;;6.93;;
54947;SDS011;41113;41.882;12.530;2022-09-09T04:10:58;14.70;;;6.68;;
54947;SDS011;41113;41.882;12.530;2022-09-09T04:13:24;14.73;;;6.38;;
54947;SDS011;41113;41.882;12.530;2022-09-09T04:15:51;17.98;;;7.07;;
54947;SDS011;41113;41.882;12.530;2022-09-09T04:18:21;21.75;;;7.00;;
54947;SDS011;41113;41.882;12.530;2022-09-09T04:20:48;16.25;;;6.63;;
54947;SDS011;41113;41.882;12.530;2022-09-09T04:23:17;15.50;;;7.00;;
54947;SDS011;41113;41.882;12.530;2022-09-09T04:31:53;18.80;;;6.82;;
54947;SDS011;41113;41.882;12.530;2022-09-09T04:34:19;14.18;;;6.32;;
54947;SDS011;41113;41.882;12.530;2022-09-09T04:36:45;21.92;;;7.63;;
54947;SDS011;41113;41.882;12.530;2022-09-09T04:39:10;17.38;;;6.80;;
54947;SDS011;41113;41.882;12.530;2022-09-09T04:41:42;16.63;;;7.13;;
54947;SDS011;41113;41.882;12.530;2022-09-09T04:44:07;14.38;;;6.85;;
54947;SDS011;41113;41.882;12.530;2022-09-09T04:46:33;16.15;;;5.95;;
54947;SDS011;41113;41.882;12.530;2022-09-09T04:49:01;25.40;;;7.63;;
54947;SDS011;41113;41.882;12.530;2022-09-09T04:54:30;19.13;;;5.90;;
54947;SDS011;41113;41.882;12.530;2022-09-09T04:56:57;16.20;;;6.72;;
54947;SDS011;41113;41.882;12.530;2022-09-09T04:59:22;18.08;;;6.68;;
54947;SDS011;41113;41.882;12.530;2022-09-09T05:04:52;14.25;;;6.53;;
54947;SDS011;41113;41.882;12.530;2022-09-09T05:10:39;13.00;;;5.75;;
54947;SDS011;41113;41.882;12.530;2022-09-09T05:13:09;13.55;;;5.60;;
54947;SDS011;41113;41.882;12.530;2022-09-09T05:24:54;13.43;;;5.60;;
54947;SDS011;41113;41.882;12.530;2022-09-09T05:27:20;12.68;;;5.60;;
54947;SDS011;41113;41.882;12.530;2022-09-09T05:32:29;16.65;;;6.00;;
54947;SDS011;41113;41.882;12.530;2022-09-09T05:43:05;15.70;;;6.35;;
54947;SDS011;41113;41.882;12.530;2022-09-09T05:45:31;17.08;;;6.50;;
54947;SDS011;41113;41.882;12.530;2022-09-09T05:51:25;20.25;;;6.25;;
54947;SDS011;41113;41.882;12.530;2022-09-09T05:53:53;15.77;;;6.65;;
54947;SDS011;41113;41.882;12.530;2022-09-09T06:02:56;14.80;;;5.57;;
54947;SDS011;41113;41.882;12.530;2022-09-09T06:05:22;14.38;;;5.45;;
54947;SDS011;41113;41.882;12.530;2022-09-09T06:07:51;14.07;;;5.60;;
54947;SDS011;41113;41.882;12.530;2022-09-09T06:10:17;13.77;;;6.03;;
54947;SDS011;41113;41.882;12.530;2022-09-09T06:12:52;15.30;;;8.13;;
54947;SDS011;41113;41.882;12.530;2022-09-09T06:15:17;21.42;;;7.82;;
54947;SDS011;41113;41.882;12.530;2022-09-09T06:17:43;14.40;;;5.93;;
54947;SDS011;41113;41.882;12.530;2022-09-09T06:23:33;19.15;;;6.82;;
54947;SDS011;41113;41.882;12.530;2022-09-09T06:28:45;16.77;;;5.45;;
54947;SDS011;41113;41.882;12.530;2022-09-09T06:31:13;16.38;;;5.45;;
54947;SDS011;41113;41.882;12.530;2022-09-09T06:33:42;13.13;;;5.15;;
54947;SDS011;41113;41.882;12.530;2022-09-09T06:36:13;14.65;;;5.20;;
54947;SDS011;41113;41.882;12.530;2022-09-09T06:38:40;18.33;;;6.07;;
54947;SDS011;41113;41.882;12.530;2022-09-09T06:41:06;15.82;;;5.43;;
54947;SDS011;41113;41.882;12.530;2022-09-09T06:46:30;15.10;;;6.00;;
54947;SDS011;41113;41.882;12.530;2022-09-09T06:49:00;15.20;;;6.03;;
54947;SDS011;41113;41.882;12.530;2022-09-09T06:51:28;13.20;;;5.47;;
54947;SDS011;41113;41.882;12.530;2022-09-09T06:56:25;17.63;;;5.38;;
54947;SDS011;41113;41.882;12.530;2022-09-09T06:58:56;19.80;;;5.63;;
54947;SDS011;41113;41.882;12.530;2022-09-09T07:04:37;15.45;;;4.75;;
54947;SDS011;41113;41.882;12.530;2022-09-09T07:06:55;19.70;;;5.47;;
54947;SDS011;41113;41.882;12.530;2022-09-09T07:09:21;15.95;;;5.82;;
54947;SDS011;41113;41.882;12.530;2022-09-09T07:11:50;20.67;;;5.07;;
54947;SDS011;41113;41.882;12.530;2022-09-09T07:14:17;18.00;;;5.03;;
54947;SDS011;41113;41.882;12.530;2022-09-09T07:16:43;17.20;;;4.85;;
54947;SDS011;41113;41.882;12.530;2022-09-09T07:19:11;14.75;;;4.60;;
54947;SDS011;41113;41.882;12.530;2022-09-09T07:21:37;13.10;;;4.65;;
54947;SDS011;41113;41.882;12.530;2022-09-09T07:24:03;15.20;;;4.72;;
54947;SDS011;41113;41.882;12.530;2022-09-09T07:26:32;15.70;;;4.45;;
54947;SDS011;41113;41.882;12.530;2022-09-09T07:28:58;14.88;;;4.25;;
54947;SDS011;41113;41.882;12.530;2022-09-09T07:33:56;17.48;;;4.40;;
54947;SDS011;41113;41.882;12.530;2022-09-09T07:36:28;17.52;;;5.05;;
54947;SDS011;41113;41.882;12.530;2022-09-09T07:38:58;26.52;;;6.25;;
54947;SDS011;41113;41.882;12.530;2022-09-09T07:41:26;34.00;;;8.02;;
54947;SDS011;41113;41.882;12.530;2022-09-09T07:43:53;23.60;;;5.63;;
54947;SDS011;41113;41.882;12.530;2022-09-09T07:46:20;18.58;;;5.45;;
54947;SDS011;41113;41.882;12.530;2022-09-09T07:48:48;17.83;;;5.10;;
54947;SDS011;41113;41.882;12.530;2022-09-09T07:51:17;16.38;;;4.22;;
54947;SDS011;41113;41.882;12.530;2022-09-09T07:53:54;15.45;;;4.10;;
54947;SDS011;41113;41.882;12.530;2022-09-09T07:56:22;14.55;;;4.00;;
54947;SDS011;41113;41.882;12.530;2022-09-09T07:58:49;14.15;;;4.10;;
54947;SDS011;41113;41.882;12.530;2022-09-09T08:01:17;10.77;;;3.78;;
54947;SDS011;41113;41.882;12.530;2022-09-09T08:03:54;15.23;;;4.03;;
54947;SDS011;41113;41.882;12.530;2022-09-09T08:06:26;14.45;;;3.75;;
54947;SDS011;41113;41.882;12.530;2022-09-09T08:08:53;14.88;;;3.80;;
54947;SDS011;41113;41.882;12.530;2022-09-09T08:11:20;15.90;;;4.18;;
54947;SDS011;41113;41.882;12.530;2022-09-09T08:13:48;15.60;;;4.50;;
54947;SDS011;41113;41.882;12.530;2022-09-09T08:16:16;20.27;;;4.40;;
54947;SDS011;41113;41.882;12.530;2022-09-09T08:18:43;20.90;;;4.78;;
54947;SDS011;41113;41.882;12.530;2022-09-09T08:21:13;21.85;;;5.35;;
54947;SDS011;41113;41.882;12.530;2022-09-09T08:23:42;18.80;;;4.47;;
54947;SDS011;41113;41.882;12.530;2022-09-09T08:26:11;16.65;;;4.25;;
54947;SDS011;41113;41.882;12.530;2022-09-09T08:28:38;13.25;;;4.10;;
54947;SDS011;41113;41.882;12.530;2022-09-09T08:31:07;17.10;;;3.88;;
54947;SDS011;41113;41.882;12.530;2022-09-09T08:33:34;15.35;;;3.78;;
54947;SDS011;41113;41.882;12.530;2022-09-09T08:36:02;11.00;;;3.00;;
54947;SDS011;41113;41.882;12.530;2022-09-09T08:38:28;11.30;;;3.53;;
54947;SDS011;41113;41.882;12.530;2022-09-09T08:40:53;12.80;;;3.47;;
54947;SDS011;41113;41.882;12.530;2022-09-09T08:43:43;12.75;;;4.10;;
54947;SDS011;41113;41.882;12.530;2022-09-09T08:46:18;11.95;;;3.42;;
54947;SDS011;41113;41.882;12.530;2022-09-09T08:48:56;12.82;;;3.40;;
54947;SDS011;41113;41.882;12.530;2022-09-09T08:51:27;15.15;;;3.45;;
54947;SDS011;41113;41.882;12.530;2022-09-09T08:53:56;14.13;;;3.75;;
54947;SDS011;41113;41.882;12.530;2022-09-09T08:56:25;12.20;;;3.42;;
54947;SDS011;41113;41.882;12.530;2022-09-09T08:58:53;14.15;;;3.30;;
54947;SDS011;41113;41.882;12.530;2022-09-09T09:04:49;11.40;;;3.35;;
54947;SDS011;41113;41.882;12.530;2022-09-09T09:10:03;12.50;;;2.88;;
54947;SDS011;41113;41.882;12.530;2022-09-09T09:12:37;12.80;;;2.95;;
54947;SDS011;41113;41.882;12.530;2022-09-09T09:15:20;9.73;;;2.33;;
54947;SDS011;41113;41.882;12.530;2022-09-09T09:17:50;12.18;;;3.05;;
54947;SDS011;41113;41.882;12.530;2022-09-09T09:20:16;11.00;;;2.65;;
54947;SDS011;41113;41.882;12.530;2022-09-09T09:22:51;15.32;;;3.30;;
54947;SDS011;41113;41.882;12.530;2022-09-09T09:25:21;12.13;;;3.08;;
54947;SDS011;41113;41.882;12.530;2022-09-09T09:30:55;12.13;;;2.80;;
54947;SDS011;41113;41.882;12.530;2022-09-09T09:35:57;13.68;;;2.83;;
54947;SDS011;41113;41.882;12.530;2022-09-09T09:38:25;10.25;;;2.85;;
54947;SDS011;41113;41.882;12.530;2022-09-09T09:40:53;9.83;;;2.53;;
54947;SDS011;41113;41.882;12.530;2022-09-09T09:43:24;16.73;;;3.00;;
54947;SDS011;41113;41.882;12.530;2022-09-09T09:45:55;11.23;;;2.70;;
54947;SDS011;41113;41.882;12.530;2022-09-09T09:48:22;14.65;;;2.85;;
54947;SDS011;41113;41.882;12.530;2022-09-09T09:50:51;14.55;;;2.85;;
54947;SDS011;41113;41.882;12.530;2022-09-09T09:53:27;16.13;;;3.45;;
54947;SDS011;41113;41.882;12.530;2022-09-09T09:55:58;10.52;;;2.53;;
54947;SDS011;41113;41.882;12.530;2022-09-09T09:58:26;9.40;;;2.13;;
54947;SDS011;41113;41.882;12.530;2022-09-09T10:00:56;13.10;;;2.72;;
54947;SDS011;41113;41.882;12.530;2022-09-09T10:03:26;11.18;;;2.90;;
54947;SDS011;41113;41.882;12.530;2022-09-09T10:05:54;10.55;;;2.65;;
54947;SDS011;41113;41.882;12.530;2022-09-09T10:08:21;12.20;;;2.20;;
54947;SDS011;41113;41.882;12.530;2022-09-09T10:19:17;9.10;;;2.10;;
54947;SDS011;41113;41.882;12.530;2022-09-09T10:21:53;11.93;;;2.35;;
54947;SDS011;41113;41.882;12.530;2022-09-09T10:35:43;12.20;;;2.60;;
54947;SDS011;41113;41.882;12.530;2022-09-09T10:38:28;10.32;;;2.60;;
54947;SDS011;41113;41.882;12.530;2022-09-09T10:41:13;8.88;;;2.30;;
54947;SDS011;41113;41.882;12.530;2022-09-09T10:52:03;8.70;;;2.45;;
54947;SDS011;41113;41.882;12.530;2022-09-09T10:54:58;13.30;;;2.33;;
54947;SDS011;41113;41.882;12.530;2022-09-09T11:00:14;9.57;;;1.92;;
54947;SDS011;41113;41.882;12.530;2022-09-09T11:02:42;8.63;;;2.15;;
54947;SDS011;41113;41.882;12.530;2022-09-09T11:05:21;9.35;;;2.13;;
54947;SDS011;41113;41.882;12.530;2022-09-09T11:08:29;8.00;;;1.98;;
54947;SDS011;41113;41.882;12.530;2022-09-09T11:11:03;9.05;;;2.10;;
54947;SDS011;41113;41.882;12.530;2022-09-09T11:19:16;13.05;;;2.63;;
54947;SDS011;41113;41.882;12.530;2022-09-09T11:21:50;10.82;;;2.28;;
54947;SDS011;41113;41.882;12.530;2022-09-09T11:26:59;8.15;;;2.22;;
54947;SDS011;41113;41.882;12.530;2022-09-09T11:35:21;9.38;;;2.53;;
54947;SDS011;41113;41.882;12.530;2022-09-09T11:38:16;9.95;;;2.30;;
54947;SDS011;41113;41.882;12.530;2022-09-09T11:40:46;7.13;;;2.10;;
54947;SDS011;41113;41.882;12.530;2022-09-09T11:43:29;8.52;;;2.15;;
54947;SDS011;41113;41.882;12.530;2022-09-09T11:45:59;7.68;;;1.95;;
54947;SDS011;41113;41.882;12.530;2022-09-09T11:48:34;9.77;;;2.30;;
54947;SDS011;41113;41.882;12.530;2022-09-09T11:51:07;10.32;;;2.13;;
54947;SDS011;41113;41.882;12.530;2022-09-09T11:53:35;9.70;;;2.20;;
54947;SDS011;41113;41.882;12.530;2022-09-09T11:56:12;7.90;;;1.80;;
54947;SDS011;41113;41.882;12.530;2022-09-09T11:58:55;9.40;;;2.15;;
54947;SDS011;41113;41.882;12.530;2022-09-09T12:01:33;8.88;;;2.13;;
54947;SDS011;41113;41.882;12.530;2022-09-09T12:04:10;11.13;;;2.45;;
54947;SDS011;41113;41.882;12.530;2022-09-09T12:06:44;11.02;;;2.50;;
54947;SDS011;41113;41.882;12.530;2022-09-09T12:19:47;8.52;;;2.13;;
54947;SDS011;41113;41.882;12.530;2022-09-09T12:27:45;6.72;;;1.85;;
54947;SDS011;41113;41.882;12.530;2022-09-09T12:30:22;7.60;;;2.10;;
54947;SDS011;41113;41.882;12.530;2022-09-09T12:33:33;8.77;;;1.90;;
54947;SDS011;41113;41.882;12.530;2022-09-09T12:35:53;9.77;;;2.50;;
54947;SDS011;41113;41.882;12.530;2022-09-09T12:38:26;9.07;;;2.22;;
54947;SDS011;41113;41.882;12.530;2022-09-09T12:40:59;9.23;;;2.50;;
54947;SDS011;41113;41.882;12.530;2022-09-09T12:43:26;9.02;;;2.10;;
54947;SDS011;41113;41.882;12.530;2022-09-09T12:46:03;9.63;;;2.38;;
54947;SDS011;41113;41.882;12.530;2022-09-09T12:48:35;8.80;;;2.25;;
54947;SDS011;41113;41.882;12.530;2022-09-09T12:51:05;9.23;;;2.20;;
54947;SDS011;41113;41.882;12.530;2022-09-09T12:53:41;12.80;;;3.00;;
54947;SDS011;41113;41.882;12.530;2022-09-09T12:56:08;14.60;;;2.85;;
54947;SDS011;41113;41.882;12.530;2022-09-09T12:58:45;7.80;;;2.33;;
54947;SDS011;41113;41.882;12.530;2022-09-09T13:01:22;11.50;;;2.10;;
54947;SDS011;41113;41.882;12.530;2022-09-09T13:03:53;7.90;;;2.13;;
54947;SDS011;41113;41.882;12.530;2022-09-09T13:06:20;8.18;;;2.30;;
54947;SDS011;41113;41.882;12.530;2022-09-09T13:08:48;9.73;;;2.55;;
54947;SDS011;41113;41.882;12.530;2022-09-09T13:11:22;11.88;;;2.97;;
54947;SDS011;41113;41.882;12.530;2022-09-09T13:14:01;8.48;;;2.20;;
54947;SDS011;41113;41.882;12.530;2022-09-09T13:19:00;10.05;;;2.33;;
54947;SDS011;41113;41.882;12.530;2022-09-09T13:21:35;13.38;;;2.35;;
54947;SDS011;41113;41.882;12.530;2022-09-09T13:24:24;12.05;;;2.53;;
54947;SDS011;41113;41.882;12.530;2022-09-09T13:27:00;13.07;;;2.28;;
54947;SDS011;41113;41.882;12.530;2022-09-09T13:29:27;8.98;;;2.42;;
54947;SDS011;41113;41.882;12.530;2022-09-09T13:31:54;13.70;;;2.67;;
54947;SDS011;41113;41.882;12.530;2022-09-09T13:34:31;11.90;;;2.67;;
54947;SDS011;41113;41.882;12.530;2022-09-09T13:37:05;8.45;;;2.55;;
54947;SDS011;41113;41.882;12.530;2022-09-09T13:39:35;8.98;;;2.15;;
54947;SDS011;41113;41.882;12.530;2022-09-09T13:42:02;10.90;;;2.50;;
54947;SDS011;41113;41.882;12.530;2022-09-09T13:44:36;7.43;;;1.77;;
54947;SDS011;41113;41.882;12.530;2022-09-09T13:47:15;10.48;;;2.00;;
54947;SDS011;41113;41.882;12.530;2022-09-09T13:49:44;8.95;;;1.92;;
54947;SDS011;41113;41.882;12.530;2022-09-09T13:54:38;8.20;;;1.90;;
54947;SDS011;41113;41.882;12.530;2022-09-09T13:57:04;7.00;;;1.55;;
54947;SDS011;41113;41.882;12.530;2022-09-09T13:59:30;10.48;;;1.90;;
54947;SDS011;41113;41.882;12.530;2022-09-09T14:01:56;8.13;;;1.98;;
54947;SDS011;41113;41.882;12.530;2022-09-09T14:04:22;10.57;;;2.10;;
54947;SDS011;41113;41.882;12.530;2022-09-09T14:06:49;8.02;;;2.00;;
54947;SDS011;41113;41.882;12.530;2022-09-09T14:09:16;7.70;;;1.65;;
54947;SDS011;41113;41.882;12.530;2022-09-09T14:11:43;9.15;;;1.85;;
54947;SDS011;41113;41.882;12.530;2022-09-09T14:14:10;10.45;;;2.10;;
54947;SDS011;41113;41.882;12.530;2022-09-09T14:16:36;13.55;;;1.80;;
54947;SDS011;41113;41.882;12.530;2022-09-09T14:19:02;11.13;;;1.98;;
54947;SDS011;41113;41.882;12.530;2022-09-09T14:21:40;94.55;;;58.75;;
54947;SDS011;41113;41.882;12.530;2022-09-09T14:24:08;83.80;;;46.72;;
54947;SDS011;41113;41.882;12.530;2022-09-09T14:26:36;74.97;;;44.95;;
54947;SDS011;41113;41.882;12.530;2022-09-09T14:31:55;74.55;;;41.00;;
54947;SDS011;41113;41.882;12.530;2022-09-09T14:34:20;70.35;;;36.13;;
54947;SDS011;41113;41.882;12.530;2022-09-09T14:36:52;43.58;;;23.80;;
54947;SDS011;41113;41.882;12.530;2022-09-09T14:39:32;48.03;;;25.48;;
54947;SDS011;41113;41.882;12.530;2022-09-09T14:41:58;25.08;;;13.73;;
54947;SDS011;41113;41.882;12.530;2022-09-09T14:44:27;23.92;;;10.88;;
54947;SDS011;41113;41.882;12.530;2022-09-09T14:46:52;39.40;;;24.13;;
54947;SDS011;41113;41.882;12.530;2022-09-09T14:49:31;54.85;;;29.75;;
54947;SDS011;41113;41.882;12.530;2022-09-09T14:58:30;48.90;;;27.38;;
54947;SDS011;41113;41.882;12.530;2022-09-09T15:06:46;19.40;;;10.02;;
54947;SDS011;41113;41.882;12.530;2022-09-09T15:09:13;21.95;;;7.50;;
54947;SDS011;41113;41.882;12.530;2022-09-09T15:15:02;11.60;;;3.45;;
54947;SDS011;41113;41.882;12.530;2022-09-09T15:17:28;11.18;;;3.47;;
54947;SDS011;41113;41.882;12.530;2022-09-09T15:19:54;11.27;;;2.90;;
54947;SDS011;41113;41.882;12.530;2022-09-09T15:22:20;12.48;;;3.20;;
54947;SDS011;41113;41.882;12.530;2022-09-09T15:24:46;7.15;;;2.10;;
54947;SDS011;41113;41.882;12.530;2022-09-09T15:33:23;8.43;;;1.70;;
54947;SDS011;41113;41.882;12.530;2022-09-09T15:35:55;9.38;;;1.95;;
54947;SDS011;41113;41.882;12.530;2022-09-09T15:38:20;6.90;;;1.67;;
54947;SDS011;41113;41.882;12.530;2022-09-09T15:40:54;7.07;;;1.77;;
54947;SDS011;41113;41.882;12.530;2022-09-09T15:43:32;7.43;;;1.52;;
54947;SDS011;41113;41.882;12.530;2022-09-09T15:46:09;6.38;;;1.45;;
54947;SDS011;41113;41.882;12.530;2022-09-09T15:48:49;6.70;;;1.58;;
54947;SDS011;41113;41.882;12.530;2022-09-09T15:51:27;6.72;;;1.60;;
54947;SDS011;41113;41.882;12.530;2022-09-09T15:53:54;6.57;;;1.60;;
54947;SDS011;41113;41.882;12.530;2022-09-09T15:56:23;9.07;;;1.88;;
54947;SDS011;41113;41.882;12.530;2022-09-09T15:58:50;8.93;;;1.63;;
54947;SDS011;41113;41.882;12.530;2022-09-09T16:01:17;6.78;;;1.35;;
54947;SDS011;41113;41.882;12.530;2022-09-09T16:03:44;4.45;;;1.25;;
54947;SDS011;41113;41.882;12.530;2022-09-09T16:06:15;7.40;;;1.60;;
54947;SDS011;41113;41.882;12.530;2022-09-09T16:08:46;9.80;;;1.90;;
54947;SDS011;41113;41.882;12.530;2022-09-09T16:11:16;10.85;;;2.08;;
54947;SDS011;41113;41.882;12.530;2022-09-09T16:13:44;7.68;;;1.60;;
54947;SDS011;41113;41.882;12.530;2022-09-09T16:16:11;7.80;;;1.90;;
54947;SDS011;41113;41.882;12.530;2022-09-09T16:18:41;8.77;;;1.80;;
54947;SDS011;41113;41.882;12.530;2022-09-09T16:21:14;6.20;;;1.50;;
54947;SDS011;41113;41.882;12.530;2022-09-09T16:23:43;7.40;;;1.67;;
54947;SDS011;41113;41.882;12.530;2022-09-09T16:26:12;9.65;;;2.40;;
54947;SDS011;41113;41.882;12.530;2022-09-09T16:28:40;5.85;;;1.65;;
54947;SDS011;41113;41.882;12.530;2022-09-09T16:31:06;9.27;;;1.90;;
54947;SDS011;41113;41.882;12.530;2022-09-09T16:33:36;10.50;;;4.20;;
54947;SDS011;41113;41.882;12.530;2022-09-09T16:36:06;13.15;;;4.18;;
54947;SDS011;41113;41.882;12.530;2022-09-09T16:38:36;11.15;;;3.53;;
54947;SDS011;41113;41.882;12.530;2022-09-09T16:41:02;8.85;;;2.85;;
54947;SDS011;41113;41.882;12.530;2022-09-09T16:43:31;11.32;;;2.63;;
54947;SDS011;41113;41.882;12.530;2022-09-09T16:46:00;8.70;;;2.20;;
54947;SDS011;41113;41.882;12.530;2022-09-09T16:48:30;5.95;;;1.92;;
54947;SDS011;41113;41.882;12.530;2022-09-09T16:51:02;6.10;;;1.73;;
54947;SDS011;41113;41.882;12.530;2022-09-09T16:53:34;5.75;;;1.70;;
54947;SDS011;41113;41.882;12.530;2022-09-09T16:56:06;7.55;;;1.83;;
54947;SDS011;41113;41.882;12.530;2022-09-09T16:58:33;8.40;;;2.25;;
54947;SDS011;41113;41.882;12.530;2022-09-09T17:01:00;4.43;;;1.60;;
54947;SDS011;41113;41.882;12.530;2022-09-09T17:03:27;8.45;;;2.03;;
54947;SDS011;41113;41.882;12.530;2022-09-09T17:05:52;9.27;;;2.00;;
54947;SDS011;41113;41.882;12.530;2022-09-09T17:08:18;9.85;;;2.22;;
54947;SDS011;41113;41.882;12.530;2022-09-09T17:10:44;8.55;;;2.00;;
54947;SDS011;41113;41.882;12.530;2022-09-09T17:13:10;7.80;;;1.88;;
54947;SDS011;41113;41.882;12.530;2022-09-09T17:15:41;11.95;;;2.03;;
54947;SDS011;41113;41.882;12.530;2022-09-09T17:18:08;9.20;;;1.80;;
54947;SDS011;41113;41.882;12.530;2022-09-09T17:20:38;8.85;;;1.90;;
54947;SDS011;41113;41.882;12.530;2022-09-09T17:23:08;7.53;;;1.77;;
54947;SDS011;41113;41.882;12.530;2022-09-09T17:25:36;7.63;;;1.92;;
54947;SDS011;41113;41.882;12.530;2022-09-09T17:28:03;9.23;;;2.05;;
54947;SDS011;41113;41.882;12.530;2022-09-09T17:30:29;9.25;;;2.03;;
54947;SDS011;41113;41.882;12.530;2022-09-09T17:33:04;8.40;;;1.90;;
54947;SDS011;41113;41.882;12.530;2022-09-09T17:35:32;5.07;;;1.73;;
54947;SDS011;41113;41.882;12.530;2022-09-09T17:37:58;6.47;;;1.70;;
54947;SDS011;41113;41.882;12.530;2022-09-09T17:40:23;7.30;;;2.03;;
54947;SDS011;41113;41.882;12.530;2022-09-09T17:42:49;8.60;;;1.92;;
54947;SDS011;41113;41.882;12.530;2022-09-09T17:45:14;10.73;;;2.00;;
54947;SDS011;41113;41.882;12.530;2022-09-09T17:47:40;9.55;;;1.83;;
54947;SDS011;41113;41.882;12.530;2022-09-09T17:50:08;8.68;;;2.22;;
54947;SDS011;41113;41.882;12.530;2022-09-09T17:52:35;7.05;;;1.75;;
54947;SDS011;41113;41.882;12.530;2022-09-09T17:55:00;6.20;;;1.88;;
54947;SDS011;41113;41.882;12.530;2022-09-09T17:57:26;8.25;;;1.90;;
54947;SDS011;41113;41.882;12.530;2022-09-09T17:59:52;8.77;;;3.05;;
54947;SDS011;41113;41.882;12.530;2022-09-09T18:02:18;9.18;;;2.60;;
54947;SDS011;41113;41.882;12.530;2022-09-09T18:04:43;7.97;;;3.00;;
54947;SDS011;41113;41.882;12.530;2022-09-09T18:07:09;11.30;;;2.40;;
54947;SDS011;41113;41.882;12.530;2022-09-09T18:09:34;10.30;;;2.63;;
54947;SDS011;41113;41.882;12.530;2022-09-09T18:12:00;8.65;;;2.40;;
54947;SDS011;41113;41.882;12.530;2022-09-09T18:14:27;11.05;;;2.55;;
54947;SDS011;41113;41.882;12.530;2022-09-09T18:16:55;10.52;;;2.42;;
54947;SDS011;41113;41.882;12.530;2022-09-09T18:19:22;7.05;;;2.50;;
54947;SDS011;41113;41.882;12.530;2022-09-09T18:21:49;7.30;;;2.03;;
54947;SDS011;41113;41.882;12.530;2022-09-09T18:24:17;9.10;;;2.22;;
54947;SDS011;41113;41.882;12.530;2022-09-09T18:26:44;8.95;;;2.42;;
54947;SDS011;41113;41.882;12.530;2022-09-09T18:29:12;9.25;;;2.42;;
54947;SDS011;41113;41.882;12.530;2022-09-09T18:31:40;8.52;;;2.40;;
54947;SDS011;41113;41.882;12.530;2022-09-09T18:34:10;10.00;;;2.50;;
54947;SDS011;41113;41.882;12.530;2022-09-09T18:36:38;11.70;;;2.73;;
54947;SDS011;41113;41.882;12.530;2022-09-09T18:39:10;9.65;;;2.80;;
54947;SDS011;41113;41.882;12.530;2022-09-09T18:41:50;9.00;;;2.70;;
54947;SDS011;41113;41.882;12.530;2022-09-09T18:44:19;10.40;;;3.15;;
54947;SDS011;41113;41.882;12.530;2022-09-09T18:46:49;9.90;;;3.42;;
54947;SDS011;41113;41.882;12.530;2022-09-09T18:49:16;49.47;;;24.75;;
54947;SDS011;41113;41.882;12.530;2022-09-09T18:51:43;156.45;;;80.82;;
54947;SDS011;41113;41.882;12.530;2022-09-09T18:54:16;80.55;;;45.00;;
54947;SDS011;41113;41.882;12.530;2022-09-09T18:56:42;61.70;;;32.05;;
54947;SDS011;41113;41.882;12.530;2022-09-09T18:59:12;39.40;;;18.55;;
54947;SDS011;41113;41.882;12.530;2022-09-09T19:01:40;38.22;;;18.23;;
54947;SDS011;41113;41.882;12.530;2022-09-09T19:04:07;26.65;;;13.75;;
54947;SDS011;41113;41.882;12.530;2022-09-09T19:06:35;29.58;;;13.52;;
54947;SDS011;41113;41.882;12.530;2022-09-09T19:09:04;20.38;;;10.07;;
54947;SDS011;41113;41.882;12.530;2022-09-09T19:11:29;19.25;;;8.73;;
54947;SDS011;41113;41.882;12.530;2022-09-09T19:13:57;15.52;;;6.75;;
54947;SDS011;41113;41.882;12.530;2022-09-09T19:16:24;16.10;;;5.63;;
54947;SDS011;41113;41.882;12.530;2022-09-09T19:18:53;19.55;;;5.72;;
54947;SDS011;41113;41.882;12.530;2022-09-09T19:21:28;16.42;;;6.15;;
54947;SDS011;41113;41.882;12.530;2022-09-09T19:23:56;17.67;;;6.45;;
54947;SDS011;41113;41.882;12.530;2022-09-09T19:26:27;17.05;;;5.75;;
54947;SDS011;41113;41.882;12.530;2022-09-09T19:28:56;16.20;;;4.93;;
54947;SDS011;41113;41.882;12.530;2022-09-09T19:31:22;13.52;;;4.75;;
54947;SDS011;41113;41.882;12.530;2022-09-09T19:33:48;15.95;;;4.22;;